createdAt,value
2019-02-05T00:02:26.773Z,3.50
2019-02-05T00:04:56.728Z,3.60
2019-02-05T00:07:26.605Z,3.60
2019-02-05T00:09:56.613Z,3.60
2019-02-05T00:12:26.592Z,3.50
2019-02-05T00:14:56.565Z,3.50
2019-02-05T00:17:26.646Z,3.50
2019-02-05T00:19:56.736Z,3.50
2019-02-05T00:22:27.164Z,3.50
2019-02-05T00:24:57.248Z,3.50
2019-02-05T00:27:27.053Z,3.50
2019-02-05T00:29:56.945Z,3.50
2019-02-05T00:32:26.764Z,3.40
2019-02-05T00:34:57.126Z,3.40
2019-02-05T00:37:26.931Z,3.40
2019-02-05T00:39:56.729Z,3.50
2019-02-05T00:42:26.735Z,3.50
2019-02-05T00:47:25.867Z,3.50
2019-02-05T00:49:56.047Z,3.50
2019-02-05T00:52:25.969Z,3.50
2019-02-05T00:54:56.051Z,3.50
2019-02-05T00:57:25.976Z,3.50
2019-02-05T00:59:55.868Z,3.60
2019-02-05T01:02:25.680Z,3.50
2019-02-05T01:04:56.039Z,3.50
2019-02-05T01:09:55.421Z,3.60
2019-02-05T01:12:25.865Z,3.60
2019-02-05T01:14:55.743Z,3.60
2019-02-05T01:17:25.565Z,3.60
2019-02-05T01:19:55.369Z,3.60
2019-02-05T01:22:25.177Z,3.60
2019-02-05T01:24:55.132Z,3.60
2019-02-05T01:27:25.072Z,3.60
2019-02-05T01:29:55.008Z,3.60
2019-02-05T01:32:25.181Z,3.60
2019-02-05T01:34:54.989Z,3.60
2019-02-05T01:37:24.960Z,3.60
2019-02-05T01:39:56.234Z,3.60
2019-02-05T01:42:26.241Z,3.60
2019-02-05T01:44:56.052Z,3.60
2019-02-05T01:47:25.869Z,3.60
2019-02-05T01:49:55.749Z,3.70
2019-02-05T01:52:25.709Z,3.70
2019-02-05T01:54:55.768Z,3.70
2019-02-05T01:57:25.592Z,3.70
2019-02-05T01:59:55.852Z,3.70
2019-02-05T02:02:25.741Z,3.70
2019-02-05T02:04:55.540Z,3.70
2019-02-05T02:07:25.733Z,3.70
2019-02-05T02:09:55.682Z,3.70
2019-02-05T02:12:25.573Z,3.70
2019-02-05T02:14:55.723Z,3.70
2019-02-05T02:17:25.608Z,3.70
2019-02-05T02:19:55.731Z,3.70
2019-02-05T02:22:25.612Z,3.70
2019-02-05T02:24:55.408Z,3.70
2019-02-05T02:27:25.241Z,3.70
2019-02-05T02:29:55.079Z,3.70
2019-02-05T02:32:25.353Z,3.70
2019-02-05T02:34:55.231Z,3.70
2019-02-05T02:37:25.112Z,3.70
2019-02-05T02:39:54.911Z,3.60
2019-02-05T02:42:24.812Z,3.70
2019-02-05T02:44:54.624Z,3.70
2019-02-05T02:47:27.738Z,3.70
2019-02-05T02:49:56.283Z,3.60
2019-02-05T02:52:26.156Z,3.60
2019-02-05T02:54:56.050Z,3.60
2019-02-05T02:57:26.228Z,3.60
2019-02-05T02:59:56.048Z,3.60
2019-02-05T03:02:25.936Z,3.60
2019-02-05T03:04:55.741Z,3.50
2019-02-05T03:07:25.649Z,3.50
2019-02-05T03:09:55.535Z,3.60
2019-02-05T03:12:25.629Z,3.60
2019-02-05T03:14:55.758Z,3.60
2019-02-05T03:17:25.828Z,3.60
2019-02-05T03:19:55.645Z,3.60
2019-02-05T03:22:25.781Z,3.60
2019-02-05T03:24:55.585Z,3.60
2019-02-05T03:27:25.450Z,3.60
2019-02-05T03:29:55.705Z,3.60
2019-02-05T03:32:25.528Z,3.60
2019-02-05T03:34:55.405Z,3.50
2019-02-05T03:37:25.345Z,3.50
2019-02-05T03:39:55.159Z,3.50
2019-02-05T03:42:25.108Z,3.50
2019-02-05T03:44:55.309Z,3.50
2019-02-05T03:47:25.599Z,3.50
2019-02-05T03:49:55.786Z,3.50
2019-02-05T03:52:35.992Z,3.50
2019-02-05T03:55:52.964Z,3.50
2019-02-05T03:58:46.200Z,3.50
2019-02-05T04:01:39.251Z,3.50
2019-02-05T04:04:56.350Z,3.50
2019-02-05T04:07:40.505Z,5.80
2019-02-05T04:10:32.836Z,3.50
2019-02-05T04:13:21.908Z,3.50
2019-02-05T04:16:44.999Z,3.50
2019-02-05T04:19:45.512Z,3.40
2019-02-05T04:22:38.592Z,3.40
2019-02-05T04:26:01.912Z,3.40
2019-02-05T04:28:47.113Z,3.40
2019-02-05T04:31:40.548Z,3.40
2019-02-05T04:34:25.880Z,3.40
2019-02-05T04:37:06.541Z,3.40
2019-02-05T04:40:07.260Z,3.40
2019-02-05T04:42:56.730Z,3.40
2019-02-05T04:46:05.993Z,3.40
2019-02-05T04:48:59.653Z,3.50
2019-02-05T04:51:59.680Z,3.50
2019-02-05T04:57:57.523Z,3.50
2019-02-05T05:00:52.566Z,3.50
2019-02-05T05:04:09.836Z,3.50
2019-02-05T05:07:19.184Z,3.50
2019-02-05T05:09:57.033Z,3.50
2019-02-05T05:12:28.585Z,3.50
2019-02-05T05:14:59.000Z,3.50
2019-02-05T05:17:28.834Z,3.50
2019-02-05T05:19:59.045Z,3.40
2019-02-05T05:22:29.116Z,3.40
2019-02-05T05:24:59.459Z,3.40
2019-02-05T05:27:29.790Z,3.50
2019-02-05T05:29:59.739Z,3.50
2019-02-05T05:32:29.693Z,3.50
2019-02-05T05:37:34.944Z,3.50
2019-02-05T05:40:05.556Z,3.50
2019-02-05T05:42:35.443Z,3.50
2019-02-05T05:45:07.111Z,3.50
2019-02-05T05:47:36.989Z,3.50
2019-02-05T05:50:09.407Z,3.50
2019-02-05T05:52:39.219Z,3.60
2019-02-05T05:55:09.907Z,3.60
2019-02-05T05:57:39.867Z,3.60
2019-02-05T06:00:13.972Z,3.60
2019-02-05T06:02:44.095Z,3.60
2019-02-05T06:05:16.017Z,3.60
2019-02-05T06:07:46.140Z,3.60
2019-02-05T06:10:17.108Z,3.60
2019-02-05T06:12:47.063Z,3.60
2019-02-05T06:15:17.145Z,3.60
2019-02-05T06:17:47.024Z,3.60
2019-02-05T06:20:17.538Z,6.50
2019-02-05T06:22:47.504Z,3.70
2019-02-05T06:25:17.337Z,3.70
2019-02-05T06:27:47.364Z,3.70
2019-02-05T06:30:17.566Z,3.70
2019-02-05T06:32:47.509Z,3.70
2019-02-05T06:35:17.405Z,3.70
2019-02-05T06:37:47.295Z,3.80
2019-02-05T06:40:18.893Z,3.80
2019-02-05T06:42:48.872Z,3.80
2019-02-05T06:45:19.280Z,3.80
2019-02-05T06:50:18.776Z,3.80
2019-02-05T06:52:49.934Z,3.80
2019-02-05T06:55:19.828Z,3.80
2019-02-05T06:57:49.628Z,3.80
2019-02-05T07:00:21.261Z,3.80
2019-02-05T07:02:53.556Z,3.90
2019-02-05T07:05:23.956Z,3.90
2019-02-05T07:07:54.228Z,3.90
2019-02-05T07:10:24.280Z,3.90
2019-02-05T07:12:54.372Z,3.90
2019-02-05T07:15:24.412Z,3.80
2019-02-05T07:17:54.528Z,3.90
2019-02-05T07:20:24.353Z,3.80
2019-02-05T07:22:55.780Z,3.80
2019-02-05T07:25:25.888Z,3.80
2019-02-05T07:27:55.965Z,3.80
2019-02-05T07:30:26.093Z,3.90
2019-02-05T07:32:56.164Z,3.90
2019-02-05T07:35:26.168Z,3.90
2019-02-05T07:37:56.501Z,3.90
2019-02-05T07:40:26.580Z,4.00
2019-02-05T07:42:56.558Z,4.00
2019-02-05T07:45:26.432Z,4.00
2019-02-05T07:47:56.270Z,4.00
2019-02-05T07:50:26.676Z,4.00
2019-02-05T07:52:56.653Z,4.10
2019-02-05T07:55:26.996Z,4.20
2019-02-05T07:57:56.927Z,4.20
2019-02-05T08:00:28.266Z,4.20
2019-02-05T08:02:58.232Z,4.20
2019-02-05T08:05:32.355Z,4.20
2019-02-05T08:08:02.536Z,4.30
2019-02-05T08:10:32.921Z,4.30
2019-02-05T08:13:02.867Z,4.30
2019-02-05T08:15:33.592Z,4.30
2019-02-05T08:18:03.572Z,4.30
2019-02-05T08:20:33.533Z,4.30
2019-02-05T08:23:03.673Z,4.40
2019-02-05T08:25:33.564Z,4.40
2019-02-05T08:28:04.536Z,4.40
2019-02-05T08:33:05.525Z,4.40
2019-02-05T08:35:35.487Z,4.50
2019-02-05T08:38:05.525Z,4.50
2019-02-05T08:40:35.537Z,4.60
2019-02-05T08:43:06.353Z,4.60
2019-02-05T08:45:36.862Z,4.70
2019-02-05T08:48:07.877Z,4.60
2019-02-05T08:50:37.897Z,4.70
2019-02-05T08:53:07.817Z,4.60
2019-02-05T08:55:37.692Z,4.70
2019-02-05T08:58:09.481Z,4.80
2019-02-05T09:00:39.660Z,4.80
2019-02-05T09:03:10.536Z,4.80
2019-02-05T09:05:40.639Z,4.80
2019-02-05T09:08:10.664Z,4.80
2019-02-05T09:10:40.853Z,4.70
2019-02-05T09:13:11.423Z,4.80
2019-02-05T09:15:41.544Z,4.90
2019-02-05T09:18:11.525Z,5.10
2019-02-05T09:20:41.397Z,5.20
2019-02-05T09:23:14.139Z,5.10
2019-02-05T09:25:43.172Z,5.10
2019-02-05T09:28:14.740Z,5.10
2019-02-05T09:30:44.699Z,4.90
2019-02-05T09:33:14.675Z,5.00
2019-02-05T09:35:44.629Z,5.10
2019-02-05T09:38:14.586Z,5.10
2019-02-05T09:40:44.795Z,5.30
2019-02-05T09:43:15.200Z,5.30
2019-02-05T09:45:45.093Z,5.40
2019-02-05T09:48:15.140Z,5.60
2019-02-05T09:50:45.374Z,5.60
2019-02-05T09:53:15.385Z,5.60
2019-02-05T09:55:45.261Z,5.60
2019-02-05T09:58:15.296Z,5.50
2019-02-05T10:00:45.245Z,5.60
2019-02-05T10:03:15.129Z,5.80
2019-02-05T10:05:45.080Z,5.80
2019-02-05T10:08:14.868Z,5.90
2019-02-05T10:10:44.835Z,6.00
2019-02-05T10:13:14.888Z,6.00
2019-02-05T10:15:45.018Z,6.10
2019-02-05T10:18:14.973Z,6.20
2019-02-05T10:20:45.046Z,6.30
2019-02-05T10:23:14.998Z,6.30
2019-02-05T10:25:44.877Z,6.30
2019-02-05T10:28:14.685Z,6.30
2019-02-05T10:30:45.928Z,6.40
2019-02-05T10:33:15.908Z,6.40
2019-02-05T10:35:46.317Z,6.60
2019-02-05T10:40:45.594Z,6.80
2019-02-05T10:43:15.637Z,6.70
2019-02-05T10:45:46.077Z,6.70
2019-02-05T10:48:16.196Z,6.70
2019-02-05T10:50:46.076Z,6.80
2019-02-05T10:53:15.989Z,6.80
2019-02-05T10:55:46.242Z,6.90
2019-02-05T10:58:16.116Z,6.80
2019-02-05T11:00:46.441Z,6.80
2019-02-05T11:03:16.392Z,8.90
2019-02-05T11:05:46.361Z,6.40
2019-02-05T11:08:16.419Z,6.40
2019-02-05T11:10:46.316Z,6.50
2019-02-05T11:13:18.839Z,6.40
2019-02-05T11:15:47.712Z,6.40
2019-02-05T11:18:17.524Z,6.40
2019-02-05T11:20:47.426Z,6.40
2019-02-05T11:23:18.932Z,6.40
2019-02-05T11:25:48.821Z,6.50
2019-02-05T11:28:18.626Z,6.50
2019-02-05T11:30:48.512Z,6.40
2019-02-05T11:33:18.500Z,6.50
2019-02-05T11:35:48.396Z,6.50
2019-02-05T11:38:18.756Z,6.50
2019-02-05T11:40:48.968Z,6.40
2019-02-05T11:43:19.266Z,6.30
2019-02-05T11:45:50.080Z,6.10
2019-02-05T11:48:20.850Z,6.10
2019-02-05T11:50:51.239Z,6.20
2019-02-05T11:53:21.629Z,6.20
2019-02-05T11:55:51.920Z,6.20
2019-02-05T11:58:21.860Z,6.20
2019-02-05T12:01:01.294Z,6.10
2019-02-05T12:06:01.077Z,6.30
2019-02-05T12:08:31.420Z,6.30
2019-02-05T12:11:01.897Z,6.30
2019-02-05T12:13:32.375Z,6.40
2019-02-05T12:16:03.279Z,6.40
2019-02-05T12:18:33.500Z,6.50
2019-02-05T12:21:03.916Z,6.50
2019-02-05T12:23:34.127Z,6.60
2019-02-05T12:26:04.682Z,6.60
2019-02-05T12:28:35.117Z,6.50
2019-02-05T12:31:05.598Z,6.60
2019-02-05T12:33:35.896Z,6.60
2019-02-05T12:36:06.176Z,6.60
2019-02-05T12:38:36.503Z,6.70
2019-02-05T12:41:06.449Z,6.80
2019-02-05T12:43:36.333Z,6.80
2019-02-05T12:46:06.308Z,6.80
2019-02-05T12:48:36.229Z,6.70
2019-02-05T12:51:07.156Z,6.80
2019-02-05T12:53:37.041Z,6.80
2019-02-05T12:56:07.123Z,6.70
2019-02-05T12:58:36.949Z,6.70
2019-02-05T13:01:06.998Z,6.80
2019-02-05T13:03:36.876Z,6.80
2019-02-05T13:06:06.985Z,6.70
2019-02-05T13:08:36.984Z,6.70
2019-02-05T13:11:06.936Z,6.60
2019-02-05T13:13:36.833Z,6.60
2019-02-05T13:16:07.657Z,6.50
2019-02-05T13:18:37.538Z,6.50
2019-02-05T13:21:07.434Z,6.50
2019-02-05T13:23:37.325Z,6.50
2019-02-05T13:26:07.550Z,6.30
2019-02-05T13:28:38.080Z,6.40
2019-02-05T13:31:08.482Z,6.40
2019-02-05T13:33:38.625Z,6.40
2019-02-05T13:36:11.147Z,6.50
2019-02-05T13:38:41.780Z,6.50
2019-02-05T13:41:12.074Z,6.50
2019-02-05T13:43:42.282Z,6.50
2019-02-05T13:46:12.378Z,6.30
2019-02-05T13:51:11.857Z,6.30
2019-02-05T13:53:41.770Z,6.40
2019-02-05T13:56:11.932Z,6.40
2019-02-05T13:58:42.239Z,6.40
2019-02-05T14:01:19.651Z,6.40
2019-02-05T14:03:43.712Z,6.40
2019-02-05T14:06:13.529Z,6.30
2019-02-05T14:08:43.601Z,6.30
2019-02-05T14:11:13.940Z,6.30
2019-02-05T14:13:43.965Z,6.20
2019-02-05T14:16:14.024Z,6.30
2019-02-05T14:18:54.687Z,6.30
2019-02-05T14:21:15.525Z,6.30
2019-02-05T14:23:45.577Z,6.30
2019-02-05T14:26:15.657Z,6.30
2019-02-05T14:28:45.492Z,6.30
2019-02-05T14:31:15.388Z,6.40
2019-02-05T14:33:45.192Z,6.40
2019-02-05T14:36:15.093Z,6.50
2019-02-05T14:38:44.932Z,6.50
2019-02-05T14:41:15.040Z,6.50
2019-02-05T14:43:46.286Z,6.40
2019-02-05T14:46:16.414Z,6.40
2019-02-05T14:51:16.117Z,6.40
2019-02-05T14:53:46.638Z,6.40
2019-02-05T14:56:16.849Z,6.40
2019-02-05T14:58:46.923Z,6.40
2019-02-05T15:01:16.976Z,6.30
2019-02-05T15:03:47.102Z,6.30
2019-02-05T15:06:17.317Z,6.40
2019-02-05T15:08:47.607Z,6.40
2019-02-05T15:11:17.798Z,6.40
2019-02-05T15:13:48.244Z,6.40
2019-02-05T15:18:48.315Z,6.40
2019-02-05T15:21:18.960Z,6.40
2019-02-05T15:23:49.177Z,6.40
2019-02-05T15:26:19.471Z,6.40
2019-02-05T15:28:49.873Z,6.40
2019-02-05T15:31:20.251Z,6.40
2019-02-05T15:33:57.945Z,6.40
2019-02-05T15:36:42.625Z,6.30
2019-02-05T15:39:14.694Z,10.00
2019-02-05T15:41:44.922Z,6.30
2019-02-05T15:44:15.725Z,6.20
2019-02-05T15:46:46.125Z,6.20
2019-02-05T15:49:16.401Z,6.10
2019-02-05T15:51:46.641Z,6.10
2019-02-05T15:54:16.877Z,6.10
2019-02-05T15:56:46.931Z,6.10
2019-02-05T15:59:17.168Z,6.00
2019-02-05T16:01:47.400Z,6.10
2019-02-05T16:04:17.281Z,6.10
2019-02-05T16:06:47.293Z,6.10
2019-02-05T16:09:17.368Z,6.10
2019-02-05T16:11:47.619Z,6.10
2019-02-05T16:14:17.460Z,6.10
2019-02-05T16:16:47.272Z,6.10
2019-02-05T16:19:17.449Z,6.00
2019-02-05T16:21:47.341Z,6.00
2019-02-05T16:24:17.225Z,6.00
2019-02-05T16:26:47.524Z,6.00
2019-02-05T16:29:17.345Z,5.90
2019-02-05T16:31:47.179Z,5.90
2019-02-05T16:34:17.085Z,5.90
2019-02-05T16:36:48.746Z,5.90
2019-02-05T16:39:18.757Z,5.90
2019-02-05T16:41:48.898Z,5.80
2019-02-05T16:44:18.778Z,5.80
2019-02-05T16:46:48.605Z,5.80
2019-02-05T16:49:18.444Z,5.80
2019-02-05T16:51:48.444Z,5.80
2019-02-05T16:54:18.553Z,5.70
2019-02-05T16:56:48.383Z,5.70
2019-02-05T16:59:18.409Z,5.70
2019-02-05T17:01:48.348Z,5.70
2019-02-05T17:04:18.187Z,5.60
2019-02-05T17:06:48.198Z,5.60
2019-02-05T17:09:19.302Z,5.60
2019-02-05T17:11:49.368Z,5.70
2019-02-05T17:14:19.278Z,5.60
2019-02-05T17:16:49.132Z,5.60
2019-02-05T17:19:19.040Z,5.60
2019-02-05T17:21:48.986Z,5.50
2019-02-05T17:24:19.152Z,5.50
2019-02-05T17:26:49.053Z,5.50
2019-02-05T17:29:18.938Z,5.50
2019-02-05T17:31:48.976Z,5.50
2019-02-05T17:34:18.809Z,5.50
2019-02-05T17:36:48.620Z,5.50
2019-02-05T17:39:18.633Z,5.50
2019-02-05T17:41:48.654Z,5.40
2019-02-05T17:44:18.530Z,5.40
2019-02-05T17:46:48.332Z,5.40
2019-02-05T17:49:18.224Z,5.40
2019-02-05T17:51:48.033Z,5.30
2019-02-05T17:54:17.989Z,5.40
2019-02-05T17:56:48.053Z,5.30
2019-02-05T17:59:18.181Z,5.30
2019-02-05T18:01:48.069Z,5.30
2019-02-05T18:04:17.996Z,5.30
2019-02-05T18:06:48.264Z,5.30
2019-02-05T18:09:18.148Z,5.30
2019-02-05T18:11:47.952Z,5.30
2019-02-05T18:14:17.915Z,5.30
2019-02-05T18:16:47.730Z,5.30
2019-02-05T18:19:17.600Z,5.20
2019-02-05T18:21:47.653Z,5.20
2019-02-05T18:24:17.529Z,5.20
2019-02-05T18:26:47.326Z,5.20
2019-02-05T18:29:17.167Z,5.30
2019-02-05T18:31:47.356Z,5.20
2019-02-05T18:34:17.241Z,5.20
2019-02-05T18:36:47.047Z,5.20
2019-02-05T18:39:17.000Z,5.20
2019-02-05T18:41:46.872Z,5.20
2019-02-05T18:44:16.688Z,5.20
2019-02-05T18:46:46.496Z,5.20
2019-02-05T18:49:16.760Z,5.20
2019-02-05T18:51:46.642Z,5.20
2019-02-05T18:54:16.532Z,5.20
2019-02-05T18:56:46.588Z,5.20
2019-02-05T18:59:16.562Z,5.20
2019-02-05T19:01:46.760Z,5.20
2019-02-05T19:04:16.957Z,5.20
2019-02-05T19:06:46.828Z,5.20
2019-02-05T19:09:16.709Z,5.20
2019-02-05T19:11:46.672Z,5.20
2019-02-05T19:14:16.839Z,5.20
2019-02-05T19:16:46.780Z,5.20
2019-02-05T19:19:16.848Z,5.20
2019-02-05T19:21:46.677Z,5.20
2019-02-05T19:24:32.841Z,5.10
2019-02-05T19:27:02.901Z,5.20
2019-02-05T19:29:33.144Z,5.10
2019-02-05T19:32:03.150Z,5.10
2019-02-05T19:34:32.944Z,5.10
2019-02-05T19:37:03.000Z,5.00
2019-02-05T19:39:32.805Z,5.00
2019-02-05T19:42:02.700Z,5.00
2019-02-05T19:44:32.884Z,5.00
2019-02-05T19:47:08.997Z,4.90
2019-02-05T19:49:41.293Z,4.80
2019-02-05T19:52:11.256Z,4.70
2019-02-05T19:54:41.147Z,4.70
2019-02-05T19:57:10.967Z,4.60
2019-02-05T19:59:41.052Z,4.50
2019-02-05T20:02:11.080Z,4.50
2019-02-05T20:04:40.957Z,4.40
2019-02-05T20:07:11.055Z,4.30
2019-02-05T20:09:41.004Z,4.20
2019-02-05T20:12:10.909Z,4.10
2019-02-05T20:14:40.717Z,4.00
2019-02-05T20:17:10.688Z,4.00
2019-02-05T20:19:40.567Z,3.90
2019-02-05T20:22:10.568Z,3.80
2019-02-05T20:24:40.454Z,3.70
2019-02-05T20:27:10.424Z,3.60
2019-02-05T20:29:40.256Z,3.50
2019-02-05T20:32:11.296Z,3.40
2019-02-05T20:34:41.308Z,3.30
2019-02-05T20:37:11.301Z,3.20
2019-02-05T20:39:41.120Z,3.20
2019-02-05T20:42:11.264Z,3.10
2019-02-05T20:44:41.129Z,3.10
2019-02-05T20:47:11.110Z,3.00
2019-02-05T20:49:40.999Z,3.00
2019-02-05T20:52:10.815Z,2.90
2019-02-05T20:54:40.780Z,2.90
2019-02-05T20:57:10.752Z,2.80
2019-02-05T20:59:40.648Z,2.80
2019-02-05T21:02:11.063Z,2.70
2019-02-05T21:04:48.017Z,2.70
2019-02-05T21:07:12.518Z,2.60
2019-02-05T21:09:42.472Z,2.60
2019-02-05T21:12:12.873Z,2.60
2019-02-05T21:17:13.262Z,2.50
2019-02-05T21:19:43.136Z,2.50
2019-02-05T21:22:13.069Z,2.50
2019-02-05T21:24:42.993Z,2.40
2019-02-05T21:27:13.074Z,2.30
2019-02-05T21:29:42.846Z,2.30
2019-02-05T21:32:13.068Z,2.30
2019-02-05T21:34:42.872Z,2.20
2019-02-05T21:37:12.692Z,2.20
2019-02-05T21:39:42.492Z,2.20
2019-02-05T21:42:12.288Z,2.20
2019-02-05T21:44:42.097Z,2.20
2019-02-05T21:47:12.521Z,2.10
2019-02-05T21:49:42.336Z,2.10
2019-02-05T21:52:12.289Z,2.00
2019-02-05T21:54:42.188Z,2.00
2019-02-05T21:57:12.386Z,2.00
2019-02-05T21:59:42.788Z,2.10
2019-02-05T22:02:12.670Z,2.10
2019-02-05T22:04:42.556Z,2.10
2019-02-05T22:07:12.464Z,2.10
2019-02-05T22:09:42.345Z,2.10
2019-02-05T22:12:12.372Z,1.90
2019-02-05T22:14:42.520Z,1.90
2019-02-05T22:17:12.763Z,1.90
2019-02-05T22:19:42.587Z,1.80
2019-02-05T22:22:12.393Z,1.80
2019-02-05T22:24:44.714Z,1.80
2019-02-05T22:27:13.693Z,1.80
2019-02-05T22:29:43.520Z,1.90
2019-02-05T22:32:13.421Z,1.90
2019-02-05T22:34:43.244Z,1.90
2019-02-05T22:37:13.301Z,1.90
2019-02-05T22:39:43.555Z,1.80
2019-02-05T22:42:13.349Z,1.70
2019-02-05T22:44:43.540Z,1.70
2019-02-05T22:47:13.412Z,1.70
2019-02-05T22:49:43.232Z,1.70
2019-02-05T22:52:13.055Z,1.60
2019-02-05T22:54:42.929Z,1.60
2019-02-05T22:57:12.721Z,1.50
2019-02-05T22:59:42.829Z,1.50
2019-02-05T23:02:12.807Z,1.50
2019-02-05T23:05:18.365Z,1.40
2019-02-05T23:07:48.621Z,1.40
2019-02-05T23:10:40.208Z,1.30
2019-02-05T23:13:12.548Z,1.30
2019-02-05T23:15:44.675Z,1.30
2019-02-05T23:18:14.965Z,1.20
2019-02-05T23:20:44.915Z,1.20
2019-02-05T23:23:14.871Z,1.20
2019-02-05T23:25:44.961Z,1.20
2019-02-05T23:28:14.918Z,1.20
2019-02-05T23:30:44.887Z,1.20
2019-02-05T23:33:15.112Z,1.20
2019-02-05T23:35:45.064Z,1.10
2019-02-05T23:38:14.885Z,1.10
2019-02-05T23:40:44.905Z,1.20
2019-02-05T23:43:14.928Z,1.30
2019-02-05T23:45:44.891Z,1.40
2019-02-05T23:48:14.856Z,4.70
2019-02-05T23:50:44.709Z,1.50
2019-02-05T23:53:14.568Z,1.50
2019-02-05T23:55:44.368Z,1.40
2019-02-05T23:58:14.208Z,1.50
